Time;durP1;ratioP1;P1;durP2;ratioP2;P2;SDS_P1;SDS_P2;PMS_P1;PMS_P2;Temp;Humidity;BMP_temperature;BMP_pressure;BME280_temperature;BME280_humidity;BME280_pressure;Samples;Min_cycle;Max_cycle;Signal;HPM_P1;HPM_P2
2023/04/25 00:00:20;;;;;;;4.43;2.13;;;11.10;99.90;;;;;;5018353;28;20053;-81
2023/04/25 00:02:47;;;;;;;5.53;2.47;;;11.10;99.90;;;;;;5020172;28;20053;-82
2023/04/25 00:05:15;;;;;;;5.32;2.53;;;11.10;99.90;;;;;;5010683;28;20066;-81
2023/04/25 00:07:42;;;;;;;6.53;2.58;;;11.10;99.90;;;;;;5016643;28;20081;-83
2023/04/25 00:10:11;;;;;;;6.07;2.55;;;11.10;99.90;;;;;;5014852;28;20130;-80
2023/04/25 00:12:38;;;;;;;6.05;2.65;;;11.10;99.90;;;;;;5010253;28;20054;-82
2023/04/25 00:15:06;;;;;;;8.63;3.10;;;11.10;99.90;;;;;;5014834;28;20046;-82
2023/04/25 00:17:34;;;;;;;7.45;2.65;;;11.10;99.90;;;;;;4997478;28;20053;-82
2023/04/25 00:20:04;;;;;;;6.68;2.30;;;11.10;99.90;;;;;;5016286;28;20042;-82
2023/04/25 00:22:33;;;;;;;7.07;2.97;;;11.10;99.90;;;;;;5031128;28;20112;-83
2023/04/25 00:25:00;;;;;;;8.02;2.85;;;11.10;99.90;;;;;;5013102;28;20129;-83
2023/04/25 00:27:27;;;;;;;6.45;2.42;;;11.10;99.90;;;;;;5011502;28;20046;-83
2023/04/25 00:29:53;;;;;;;7.28;2.88;;;11.10;99.90;;;;;;5013345;28;20081;-82
2023/04/25 00:32:20;;;;;;;6.80;2.80;;;11.00;99.90;;;;;;5006602;28;20294;-83
2023/04/25 00:34:47;;;;;;;4.18;2.55;;;11.00;99.90;;;;;;5017027;28;20117;-83
2023/04/25 00:37:13;;;;;;;9.73;3.92;;;10.90;99.90;;;;;;5008484;28;20046;-83
2023/04/25 00:39:40;;;;;;;9.38;2.70;;;10.90;99.90;;;;;;5020131;28;20129;-83
2023/04/25 00:42:08;;;;;;;6.30;2.67;;;10.90;99.90;;;;;;5021263;28;20488;-82
2023/04/25 00:44:35;;;;;;;3.58;2.50;;;10.90;99.90;;;;;;5022477;28;20071;-81
2023/04/25 00:47:03;;;;;;;8.15;2.63;;;10.80;99.90;;;;;;5013809;28;20046;-83
2023/04/25 00:49:30;;;;;;;6.57;2.88;;;10.80;99.90;;;;;;5014464;28;20100;-81
2023/04/25 00:51:57;;;;;;;8.00;3.47;;;10.80;99.90;;;;;;5018469;28;20042;-82
2023/04/25 00:54:24;;;;;;;8.30;3.00;;;10.70;99.90;;;;;;5015398;28;20721;-80
2023/04/25 00:56:51;;;;;;;6.18;3.25;;;10.70;99.90;;;;;;5014613;28;20558;-81
2023/04/25 00:59:20;;;;;;;8.40;3.70;;;10.70;99.90;;;;;;5014017;28;20517;-82
2023/04/25 01:01:46;;;;;;;7.05;2.95;;;10.70;99.90;;;;;;5010797;28;20573;-80
2023/04/25 01:04:13;;;;;;;7.28;3.13;;;10.70;99.90;;;;;;5017577;28;20077;-83
2023/04/25 01:06:41;;;;;;;8.73;2.70;;;10.70;99.90;;;;;;5009892;28;20082;-84
2023/04/25 01:09:07;;;;;;;6.38;3.35;;;10.60;99.90;;;;;;5017956;28;20042;-82
2023/04/25 01:11:34;;;;;;;6.60;2.83;;;10.60;99.90;;;;;;5012841;28;20077;-82
2023/04/25 01:14:01;;;;;;;6.22;2.85;;;10.60;99.90;;;;;;5022040;28;20109;-82
2023/04/25 01:16:28;;;;;;;5.88;3.03;;;10.60;99.90;;;;;;5005916;28;20062;-79
2023/04/25 01:18:56;;;;;;;8.85;3.08;;;10.50;99.90;;;;;;5005392;28;20072;-82
2023/04/25 01:21:26;;;;;;;9.05;3.03;;;10.50;99.90;;;;;;5002676;28;20140;-82
2023/04/25 01:23:53;;;;;;;5.70;2.67;;;10.60;99.90;;;;;;5016980;28;20084;-82
2023/04/25 01:26:21;;;;;;;8.18;3.00;;;10.50;99.90;;;;;;5019168;28;20078;-81
2023/04/25 01:28:48;;;;;;;6.85;3.42;;;10.50;99.90;;;;;;5016406;28;20057;-82
2023/04/25 01:31:16;;;;;;;8.80;3.08;;;10.50;99.90;;;;;;5017574;28;20141;-84
2023/04/25 01:33:43;;;;;;;6.75;2.85;;;10.50;99.90;;;;;;5017014;28;20049;-83
2023/04/25 01:36:10;;;;;;;10.75;2.97;;;10.50;99.90;;;;;;5019971;28;20057;-83
2023/04/25 01:38:37;;;;;;;4.82;2.90;;;10.50;99.90;;;;;;5020957;28;20058;-82
2023/04/25 01:41:05;;;;;;;7.10;2.75;;;10.50;99.90;;;;;;5011166;28;20050;-83
2023/04/25 01:43:31;;;;;;;4.55;2.60;;;10.50;99.90;;;;;;5022393;28;20133;-82
2023/04/25 01:45:59;;;;;;;7.18;2.92;;;10.50;99.90;;;;;;5016048;28;20133;-82
2023/04/25 01:48:26;;;;;;;8.30;3.00;;;10.50;99.90;;;;;;5012465;28;20054;-82
2023/04/25 01:50:52;;;;;;;10.10;3.95;;;10.50;99.90;;;;;;5030456;28;20117;-82
2023/04/25 01:53:19;;;;;;;6.07;2.58;;;10.40;99.90;;;;;;5013989;28;20074;-83
2023/04/25 01:55:46;;;;;;;6.40;3.03;;;10.50;99.90;;;;;;5015569;28;20059;-80
2023/04/25 01:58:13;;;;;;;9.57;2.78;;;10.40;99.90;;;;;;5015970;28;20084;-81
2023/04/25 02:00:40;;;;;;;7.80;2.95;;;10.40;99.90;;;;;;5022935;28;20161;-82
2023/04/25 02:03:08;;;;;;;9.48;3.28;;;10.40;99.90;;;;;;5011446;28;20050;-83
2023/04/25 02:05:39;;;;;;;6.97;3.30;;;10.40;99.90;;;;;;5019307;28;20049;-83
2023/04/25 02:08:07;;;;;;;10.40;3.70;;;10.40;99.90;;;;;;5019665;28;20045;-83
2023/04/25 02:10:35;;;;;;;9.52;3.30;;;10.40;99.90;;;;;;5010872;28;20082;-82
2023/04/25 02:13:02;;;;;;;9.50;3.65;;;10.40;99.90;;;;;;5012642;28;20075;-83
2023/04/25 02:15:28;;;;;;;8.93;3.45;;;10.30;99.90;;;;;;5009930;28;20049;-82
2023/04/25 02:17:55;;;;;;;10.25;3.30;;;10.30;99.90;;;;;;5020580;28;20139;-82
2023/04/25 02:20:23;;;;;;;7.80;3.08;;;10.30;99.90;;;;;;5031463;28;20041;-80
2023/04/25 02:22:51;;;;;;;11.10;3.60;;;10.30;99.90;;;;;;5032235;28;20036;-83
2023/04/25 02:25:19;;;;;;;10.60;3.45;;;10.30;99.90;;;;;;5039270;28;20057;-80
2023/04/25 02:27:47;;;;;;;9.70;3.40;;;10.20;99.90;;;;;;5029023;28;20061;-79
2023/04/25 02:30:14;;;;;;;7.82;3.22;;;10.20;99.90;;;;;;5026552;28;20073;-82
2023/04/25 02:32:41;;;;;;;5.72;2.83;;;10.20;99.90;;;;;;5023977;28;20557;-82
2023/04/25 02:35:08;;;;;;;7.88;3.25;;;10.20;99.90;;;;;;5024461;28;20049;-83
2023/04/25 02:37:36;;;;;;;6.57;3.10;;;10.20;99.90;;;;;;5020192;28;20046;-82
2023/04/25 02:40:04;;;;;;;8.93;3.20;;;10.10;99.90;;;;;;5022066;28;20081;-81
2023/04/25 02:42:31;;;;;;;7.95;2.50;;;10.10;99.90;;;;;;5018387;28;20061;-81
2023/04/25 02:44:58;;;;;;;9.85;3.20;;;10.10;99.90;;;;;;5012946;28;20156;-82
2023/04/25 02:47:25;;;;;;;7.43;3.03;;;10.00;99.90;;;;;;5017756;28;20130;-81
2023/04/25 02:49:52;;;;;;;11.20;3.30;;;10.00;99.90;;;;;;5008663;28;20042;-82
2023/04/25 02:52:19;;;;;;;9.27;3.13;;;10.00;99.90;;;;;;5009889;28;20136;-84
2023/04/25 02:54:45;;;;;;;10.40;2.95;;;10.00;99.90;;;;;;5009839;28;20110;-82
2023/04/25 02:57:12;;;;;;;7.45;3.40;;;9.90;99.90;;;;;;5004365;28;20057;-82
2023/04/25 02:59:39;;;;;;;6.40;4.03;;;9.90;99.90;;;;;;5008771;28;20058;-83
2023/04/25 03:02:06;;;;;;;4.45;3.28;;;9.90;99.90;;;;;;5012028;28;20564;-82
2023/04/25 03:04:33;;;;;;;7.15;3.50;;;9.90;99.90;;;;;;5016339;28;20053;-81
2023/04/25 03:07:01;;;;;;;7.07;3.53;;;9.90;99.90;;;;;;5016526;28;20046;-82
2023/04/25 03:09:29;;;;;;;7.75;3.28;;;9.90;99.90;;;;;;5007005;28;20148;-82
2023/04/25 03:11:57;;;;;;;5.05;3.13;;;9.90;99.90;;;;;;5019039;28;20136;-81
2023/04/25 03:14:25;;;;;;;7.47;3.75;;;9.90;99.90;;;;;;5020958;28;20046;-82
2023/04/25 03:16:52;;;;;;;8.18;4.10;;;9.90;99.90;;;;;;5008316;28;20069;-82
2023/04/25 03:19:20;;;;;;;5.35;2.92;;;9.80;99.90;;;;;;5012285;28;20073;-81
2023/04/25 03:21:47;;;;;;;6.75;3.17;;;9.80;99.90;;;;;;5017116;28;20050;-81
2023/04/25 03:24:15;;;;;;;10.45;3.38;;;9.70;99.90;;;;;;5014781;28;20217;-84
2023/04/25 03:26:41;;;;;;;7.45;3.05;;;9.70;99.90;;;;;;5012831;28;20077;-83
2023/04/25 03:29:08;;;;;;;8.57;3.65;;;9.70;99.90;;;;;;5030814;28;20117;-82
2023/04/25 03:31:35;;;;;;;8.48;3.28;;;9.70;99.90;;;;;;5007264;28;20134;-82
2023/04/25 03:34:02;;;;;;;5.25;3.45;;;9.70;99.90;;;;;;5011287;28;20092;-84
2023/04/25 03:36:28;;;;;;;8.25;3.17;;;9.70;99.90;;;;;;5010746;28;20081;-79
2023/04/25 03:38:55;;;;;;;7.68;3.30;;;9.60;99.90;;;;;;5019653;28;20049;-81
2023/04/25 03:41:22;;;;;;;7.35;3.50;;;9.60;99.90;;;;;;5018387;28;20104;-81
2023/04/25 03:43:48;;;;;;;8.88;3.05;;;9.60;99.90;;;;;;5014183;28;20085;-81
2023/04/25 03:46:15;;;;;;;6.70;2.92;;;9.60;99.90;;;;;;5018325;28;20046;-83
2023/04/25 03:48:42;;;;;;;8.18;3.65;;;9.60;99.90;;;;;;5013187;28;20058;-81
2023/04/25 03:51:09;;;;;;;8.50;3.20;;;9.60;99.90;;;;;;5012358;28;20490;-83
2023/04/25 03:53:35;;;;;;;7.65;2.85;;;9.60;99.90;;;;;;5016192;28;20070;-83
2023/04/25 03:56:02;;;;;;;6.95;3.90;;;9.60;99.90;;;;;;5012975;28;20070;-82
2023/04/25 03:58:29;;;;;;;10.88;3.47;;;9.50;99.90;;;;;;5021399;28;20050;-82
2023/04/25 04:00:56;;;;;;;10.48;2.97;;;9.50;99.90;;;;;;5018084;28;20095;-83
2023/04/25 04:03:22;;;;;;;10.40;2.97;;;9.50;99.90;;;;;;5008943;28;20125;-80
2023/04/25 04:05:50;;;;;;;7.40;3.20;;;9.60;99.90;;;;;;5006958;28;20045;-82
2023/04/25 04:08:17;;;;;;;8.75;2.88;;;9.60;99.90;;;;;;5010682;28;20089;-82
2023/04/25 04:10:44;;;;;;;8.13;2.95;;;9.60;99.90;;;;;;5021392;28;20050;-81
2023/04/25 04:13:10;;;;;;;11.10;3.30;;;9.60;99.90;;;;;;5004152;28;20424;-82
2023/04/25 04:15:37;;;;;;;6.60;2.55;;;9.60;99.90;;;;;;5016597;28;20065;-80
2023/04/25 04:18:05;;;;;;;8.50;3.85;;;9.70;99.90;;;;;;5015621;28;20061;-80
2023/04/25 04:20:36;;;;;;;5.32;3.33;;;9.70;99.90;;;;;;5019653;28;20054;-78
2023/04/25 04:23:03;;;;;;;7.80;3.47;;;9.70;99.90;;;;;;5016646;28;20045;-83
2023/04/25 04:25:30;;;;;;;7.57;2.95;;;9.70;99.90;;;;;;5014163;28;20160;-80
2023/04/25 04:27:57;;;;;;;6.78;3.10;;;9.80;99.90;;;;;;5021536;28;20073;-81
2023/04/25 04:30:25;;;;;;;10.32;2.35;;;9.80;99.90;;;;;;5015002;28;20042;-80
2023/04/25 04:32:52;;;;;;;8.00;3.72;;;9.80;99.90;;;;;;5012750;28;20476;-80
2023/04/25 04:35:19;;;;;;;7.15;2.55;;;9.90;99.90;;;;;;5018085;28;20513;-84
2023/04/25 04:37:45;;;;;;;9.52;3.25;;;9.90;99.90;;;;;;5011876;28;20049;-80
2023/04/25 04:40:15;;;;;;;8.20;3.08;;;9.90;99.90;;;;;;5012305;28;20081;-82
2023/04/25 04:42:43;;;;;;;5.80;2.58;;;10.00;99.90;;;;;;5013146;28;20501;-80
2023/04/25 04:45:10;;;;;;;6.85;2.58;;;10.00;99.90;;;;;;5017927;28;20073;-82
2023/04/25 04:47:37;;;;;;;4.75;2.40;;;10.00;99.90;;;;;;5005827;28;20053;-81
2023/04/25 04:50:04;;;;;;;6.88;3.20;;;10.00;99.90;;;;;;5027357;28;20099;-82
2023/04/25 04:52:31;;;;;;;5.93;3.13;;;10.10;99.90;;;;;;5025220;28;20053;-81
2023/04/25 04:54:57;;;;;;;7.03;2.83;;;10.10;99.90;;;;;;5037672;22;20065;-79
2023/04/25 04:57:24;;;;;;;5.80;2.47;;;9.90;99.90;;;;;;5041934;28;20128;-79
2023/04/25 04:59:51;;;;;;;3.47;1.95;;;9.60;99.90;;;;;;5027308;28;20049;-78
2023/04/25 05:02:18;;;;;;;7.93;1.88;;;9.50;99.90;;;;;;5027446;28;20156;-79
2023/04/25 05:04:44;;;;;;;2.58;1.85;;;9.40;99.90;;;;;;5027438;28;20046;-79
2023/04/25 05:07:11;;;;;;;3.63;1.92;;;9.40;99.90;;;;;;5025014;28;20060;-79
2023/04/25 05:09:38;;;;;;;2.85;1.63;;;9.20;99.90;;;;;;5045533;28;20128;-79
2023/04/25 05:12:05;;;;;;;2.67;1.30;;;9.10;99.90;;;;;;5019823;28;20038;-78
2023/04/25 05:14:32;;;;;;;4.15;1.10;;;9.10;99.90;;;;;;5029177;28;20056;-79
2023/04/25 05:16:59;;;;;;;3.60;1.20;;;9.10;99.90;;;;;;5021980;28;20136;-79
2023/04/25 05:19:26;;;;;;;2.28;0.80;;;8.90;99.90;;;;;;5021251;28;20056;-79
2023/04/25 05:21:53;;;;;;;2.30;1.23;;;8.90;99.90;;;;;;5029806;28;20049;-79
2023/04/25 05:24:19;;;;;;;1.13;0.90;;;8.80;99.90;;;;;;5032318;28;20046;-79
2023/04/25 05:26:46;;;;;;;2.00;1.23;;;8.60;99.90;;;;;;5035768;28;20113;-78
2023/04/25 05:29:13;;;;;;;2.72;1.02;;;8.60;99.90;;;;;;5023885;28;20133;-78
2023/04/25 05:31:39;;;;;;;2.40;1.05;;;8.50;99.90;;;;;;5028948;28;20477;-78
2023/04/25 05:34:06;;;;;;;1.58;1.00;;;8.60;99.90;;;;;;5024237;28;20048;-79
2023/04/25 05:36:33;;;;;;;4.85;1.38;;;8.60;99.90;;;;;;5034227;28;20132;-77
2023/04/25 05:38:59;;;;;;;2.33;1.20;;;8.50;99.90;;;;;;5033469;28;20154;-77
2023/04/25 05:41:26;;;;;;;3.13;1.60;;;8.50;99.90;;;;;;5028330;28;20050;-76
2023/04/25 05:43:53;;;;;;;4.00;0.90;;;8.60;99.90;;;;;;5035102;28;20102;-78
2023/04/25 05:46:23;;;;;;;1.55;0.85;;;8.60;99.90;;;;;;5023611;28;20053;-78
2023/04/25 05:48:50;;;;;;;2.03;1.00;;;8.60;99.90;;;;;;5028575;28;20045;-77
2023/04/25 05:51:18;;;;;;;2.58;0.90;;;8.70;99.90;;;;;;5023182;28;20141;-77
2023/04/25 05:53:45;;;;;;;2.10;1.13;;;8.80;99.90;;;;;;5034151;28;20053;-77
2023/04/25 05:56:11;;;;;;;2.80;1.00;;;8.80;99.90;;;;;;5024283;28;20141;-78
2023/04/25 05:58:38;;;;;;;1.10;0.85;;;8.90;99.90;;;;;;5036199;28;20136;-79
2023/04/25 06:01:05;;;;;;;0.77;0.65;;;8.90;99.90;;;;;;5035653;28;20045;-78
2023/04/25 06:03:31;;;;;;;2.00;0.93;;;8.90;99.90;;;;;;5021962;28;20049;-78
2023/04/25 06:05:59;;;;;;;1.00;0.85;;;8.90;99.90;;;;;;5026230;28;20056;-79
2023/04/25 06:08:25;;;;;;;2.63;1.10;;;9.00;99.90;;;;;;5040775;28;20068;-79
2023/04/25 06:10:52;;;;;;;1.50;1.02;;;8.90;99.90;;;;;;5035690;28;20132;-78
2023/04/25 06:13:19;;;;;;;1.30;1.20;;;9.00;99.90;;;;;;5034225;28;20041;-79
2023/04/25 06:15:45;;;;;;;3.03;1.40;;;9.00;99.90;;;;;;5026813;28;20052;-78
2023/04/25 06:18:12;;;;;;;2.22;0.95;;;9.00;99.90;;;;;;5027182;28;20042;-78
2023/04/25 06:20:39;;;;;;;1.63;0.98;;;9.00;99.90;;;;;;5027770;28;20094;-78
2023/04/25 06:23:06;;;;;;;2.13;1.13;;;9.00;99.90;;;;;;5031580;28;20074;-77
2023/04/25 06:25:32;;;;;;;1.67;1.15;;;9.00;99.90;;;;;;5036266;28;20422;-77
2023/04/25 06:27:59;;;;;;;5.43;0.90;;;9.00;99.90;;;;;;5019085;28;20105;-78
2023/04/25 06:30:26;;;;;;;2.08;1.05;;;9.00;99.90;;;;;;5027879;28;20046;-76
2023/04/25 06:32:54;;;;;;;7.88;1.20;;;9.10;99.90;;;;;;5033974;28;20050;-76
2023/04/25 06:35:21;;;;;;;1.63;1.10;;;9.10;99.90;;;;;;5029145;28;20061;-78
2023/04/25 06:37:47;;;;;;;1.27;0.90;;;9.20;99.90;;;;;;5032627;28;20057;-79
2023/04/25 06:40:14;;;;;;;1.55;1.08;;;9.30;99.90;;;;;;5027710;28;20132;-79
2023/04/25 06:42:41;;;;;;;1.83;1.10;;;9.30;99.90;;;;;;5025664;28;20128;-78
2023/04/25 06:45:08;;;;;;;7.57;1.52;;;9.40;99.90;;;;;;5025235;28;20136;-78
2023/04/25 06:47:35;;;;;;;2.35;1.10;;;9.50;99.90;;;;;;5027875;28;20089;-78
2023/04/25 06:50:02;;;;;;;2.33;1.10;;;9.50;99.90;;;;;;5027199;28;20060;-79
2023/04/25 06:52:29;;;;;;;1.88;1.00;;;9.60;99.90;;;;;;5023601;28;20446;-79
2023/04/25 06:54:56;;;;;;;3.72;1.10;;;9.60;99.90;;;;;;5020031;28;20044;-79
2023/04/25 06:57:23;;;;;;;2.63;1.13;;;9.70;99.90;;;;;;5019492;28;20123;-80
2023/04/25 06:59:50;;;;;;;2.13;1.02;;;9.70;99.90;;;;;;5031790;28;20045;-78
2023/04/25 07:02:16;;;;;;;1.98;1.20;;;9.80;99.90;;;;;;5019367;28;20050;-79
2023/04/25 07:04:44;;;;;;;1.63;1.30;;;9.80;99.90;;;;;;5023016;28;20369;-78
2023/04/25 07:07:11;;;;;;;1.45;1.20;;;9.90;99.90;;;;;;5015382;28;20056;-80
2023/04/25 07:09:38;;;;;;;2.55;1.25;;;9.90;99.90;;;;;;5019882;28;20056;-79
2023/04/25 07:12:05;;;;;;;1.67;1.17;;;9.90;99.90;;;;;;5020446;28;20049;-80
2023/04/25 07:14:32;;;;;;;2.85;1.17;;;10.00;99.90;;;;;;5024048;28;20115;-79
2023/04/25 07:16:59;;;;;;;1.40;1.10;;;10.00;99.90;;;;;;5030570;28;20505;-80
2023/04/25 07:19:26;;;;;;;2.22;1.40;;;10.10;99.90;;;;;;5022242;28;20050;-80
2023/04/25 07:21:53;;;;;;;2.50;1.63;;;10.10;99.90;;;;;;5028019;28;20417;-78
2023/04/25 07:24:20;;;;;;;2.85;1.40;;;10.20;99.90;;;;;;5025916;28;20046;-76
2023/04/25 07:26:46;;;;;;;3.47;1.73;;;10.20;99.90;;;;;;5026612;28;20045;-77
2023/04/25 07:29:13;;;;;;;4.53;1.65;;;10.30;99.90;;;;;;5028199;28;20095;-79
2023/04/25 07:31:40;;;;;;;3.92;1.40;;;10.30;99.90;;;;;;5029774;28;20073;-78
2023/04/25 07:34:07;;;;;;;2.40;1.63;;;10.30;99.90;;;;;;5028491;28;20045;-79
2023/04/25 07:36:33;;;;;;;3.83;1.77;;;10.40;99.90;;;;;;5023322;28;20129;-79
2023/04/25 07:39:00;;;;;;;3.53;1.95;;;10.30;99.90;;;;;;5032608;28;20096;-78
2023/04/25 07:41:27;;;;;;;2.72;1.95;;;10.30;99.90;;;;;;5027831;28;20569;-78
2023/04/25 07:43:54;;;;;;;3.63;1.95;;;10.40;99.90;;;;;;5032976;28;20115;-79
2023/04/25 07:46:20;;;;;;;3.55;2.00;;;10.40;99.90;;;;;;5032163;28;20049;-79
2023/04/25 07:48:47;;;;;;;3.58;2.20;;;10.40;99.90;;;;;;5043573;28;20056;-79
2023/04/25 07:51:14;;;;;;;4.25;2.47;;;10.40;99.90;;;;;;5034123;28;20042;-80
2023/04/25 07:53:41;;;;;;;3.22;1.92;;;10.30;99.90;;;;;;5025013;28;20080;-78
2023/04/25 07:56:09;;;;;;;4.15;2.15;;;10.40;99.90;;;;;;5034930;28;20107;-79
2023/04/25 07:58:35;;;;;;;2.92;1.83;;;10.40;99.90;;;;;;5031590;28;20052;-80
2023/04/25 08:01:02;;;;;;;3.53;2.03;;;10.50;99.90;;;;;;5031635;28;20104;-79
2023/04/25 08:03:29;;;;;;;3.33;1.60;;;10.50;99.90;;;;;;5036401;28;20173;-79
2023/04/25 08:05:56;;;;;;;2.53;1.85;;;10.50;99.90;;;;;;5029650;28;20079;-78
2023/04/25 08:08:23;;;;;;;2.40;1.92;;;10.50;99.90;;;;;;5029589;28;20049;-80
2023/04/25 08:10:50;;;;;;;2.90;2.17;;;10.60;99.90;;;;;;5028738;28;20124;-77
2023/04/25 08:13:17;;;;;;;3.53;2.33;;;10.60;99.90;;;;;;5020594;28;20120;-77
2023/04/25 08:15:43;;;;;;;3.15;1.60;;;10.60;99.90;;;;;;5027450;28;20065;-77
2023/04/25 08:18:10;;;;;;;4.07;2.25;;;10.70;99.90;;;;;;5022384;28;20042;-79
2023/04/25 08:20:37;;;;;;;2.90;1.80;;;10.70;99.90;;;;;;5028673;28;20589;-79
2023/04/25 08:23:04;;;;;;;1.95;1.50;;;10.80;99.90;;;;;;5032869;28;20064;-80
2023/04/25 08:25:31;;;;;;;3.65;1.65;;;10.90;99.90;;;;;;5028126;28;20049;-79
2023/04/25 08:27:59;;;;;;;2.75;1.80;;;10.90;99.90;;;;;;5028001;28;20049;-79
2023/04/25 08:30:26;;;;;;;1.88;1.55;;;11.00;99.90;;;;;;5026307;28;20133;-80
2023/04/25 08:32:53;;;;;;;1.80;1.30;;;11.00;99.90;;;;;;5029622;28;20096;-79
2023/04/25 08:35:20;;;;;;;2.40;1.58;;;11.00;99.90;;;;;;5029853;28;20065;-77
2023/04/25 08:37:49;;;;;;;2.53;1.70;;;11.10;99.90;;;;;;5028399;28;20513;-79
2023/04/25 08:40:16;;;;;;;3.03;1.40;;;11.10;99.90;;;;;;5028500;28;20085;-78
2023/04/25 08:42:43;;;;;;;2.50;1.38;;;11.10;99.90;;;;;;5032794;28;20076;-79
2023/04/25 08:45:10;;;;;;;2.33;1.30;;;11.10;99.90;;;;;;5029913;28;20060;-79
2023/04/25 08:47:39;;;;;;;2.28;1.92;;;11.20;99.90;;;;;;5031902;28;20080;-80
2023/04/25 08:50:07;;;;;;;3.63;1.70;;;11.20;99.90;;;;;;5034961;28;20041;-78
2023/04/25 08:52:43;;;;;;;3.40;1.55;;;11.40;99.90;;;;;;5026706;28;20046;-76
2023/04/25 08:55:11;;;;;;;1.83;1.42;;;11.50;99.90;;;;;;5030449;28;20131;-79
2023/04/25 08:57:41;;;;;;;1.67;1.40;;;11.50;99.90;;;;;;5026946;28;20078;-79
2023/04/25 09:00:09;;;;;;;4.57;1.53;;;11.60;99.90;;;;;;5027641;28;20076;-78
2023/04/25 09:02:36;;;;;;;2.03;1.70;;;11.70;99.90;;;;;;5028592;28;20128;-80
2023/04/25 09:05:04;;;;;;;3.10;1.70;;;11.80;99.90;;;;;;5026266;28;20041;-79
2023/04/25 09:07:30;;;;;;;2.15;1.50;;;11.90;99.90;;;;;;5034962;28;20049;-79
2023/04/25 09:09:59;;;;;;;4.40;1.63;;;12.00;99.90;;;;;;5027991;28;20128;-79
2023/04/25 09:12:27;;;;;;;3.75;1.73;;;12.10;99.90;;;;;;5028902;28;20081;-79
2023/04/25 09:15:10;;;;;;;2.88;1.25;;;12.20;99.90;;;;;;5048822;28;20045;-80
2023/04/25 09:17:40;;;;;;;1.70;1.10;;;12.30;99.90;;;;;;5026002;28;20424;-79
2023/04/25 09:20:12;;;;;;;0.93;0.77;;;12.40;99.90;;;;;;5031370;28;20433;-79
2023/04/25 09:22:39;;;;;;;0.95;0.80;;;12.50;99.90;;;;;;5022625;28;20054;-78
2023/04/25 09:25:15;;;;;;;3.20;1.20;;;12.70;99.90;;;;;;5025985;28;20049;-80
2023/04/25 09:27:55;;;;;;;0.90;0.70;;;12.90;99.90;;;;;;5022955;28;20090;-79
2023/04/25 09:30:30;;;;;;;3.20;0.90;;;13.10;99.90;;;;;;5032804;28;20521;-79
2023/04/25 09:33:03;;;;;;;1.13;0.77;;;13.20;99.90;;;;;;5022812;28;20049;-78
2023/04/25 09:35:39;;;;;;;1.00;0.80;;;13.30;99.90;;;;;;5029499;28;20084;-78
2023/04/25 09:38:13;;;;;;;0.75;0.75;;;13.30;99.90;;;;;;5026988;28;20494;-79
2023/04/25 09:40:41;;;;;;;1.30;0.93;;;13.30;99.90;;;;;;5025864;28;20121;-78
2023/04/25 09:43:20;;;;;;;1.73;0.90;;;13.30;99.90;;;;;;5028850;28;20505;-79
2023/04/25 09:45:47;;;;;;;1.63;1.15;;;13.30;99.90;;;;;;5028126;28;20042;-77
2023/04/25 09:48:21;;;;;;;1.92;0.95;;;13.40;99.90;;;;;;5028004;28;20547;-78
2023/04/25 09:51:13;;;;;;;2.75;1.40;;;13.40;99.90;;;;;;5027366;28;20143;-77
2023/04/25 09:53:42;;;;;;;1.20;0.95;;;13.50;99.90;;;;;;5024733;28;20050;-78
2023/04/25 09:56:11;;;;;;;3.65;1.05;;;13.50;99.90;;;;;;5023166;28;20053;-77
2023/04/25 09:58:40;;;;;;;1.65;0.90;;;13.60;99.90;;;;;;5025442;28;20469;-79
2023/04/25 10:01:08;;;;;;;1.75;1.00;;;13.60;99.90;;;;;;5022658;28;20046;-78
2023/04/25 10:03:39;;;;;;;5.55;3.50;;;13.70;99.90;;;;;;5023013;28;20429;-79
2023/04/25 10:06:16;;;;;;;4.07;2.50;;;13.60;99.90;;;;;;5020371;28;20049;-78
2023/04/25 10:08:45;;;;;;;1.83;1.10;;;13.60;99.90;;;;;;5022876;28;20053;-78
2023/04/25 10:11:15;;;;;;;2.38;1.00;;;13.50;99.90;;;;;;5029338;28;20084;-77
2023/04/25 10:13:43;;;;;;;2.22;1.55;;;13.50;99.90;;;;;;5040573;28;20042;-79
2023/04/25 10:16:10;;;;;;;6.50;4.60;;;13.50;99.90;;;;;;5025834;28;20125;-78
2023/04/25 10:18:37;;;;;;;2.42;1.50;;;13.50;99.90;;;;;;5025208;28;20050;-77
2023/04/25 10:21:06;;;;;;;1.98;0.95;;;13.50;99.90;;;;;;5026452;28;20088;-77
2023/04/25 10:23:34;;;;;;;4.05;2.03;;;13.50;99.90;;;;;;5024289;28;20049;-78
2023/04/25 10:26:01;;;;;;;2.13;1.33;;;13.40;99.90;;;;;;5027950;28;20132;-78
2023/04/25 10:28:28;;;;;;;1.80;0.90;;;13.40;99.90;;;;;;5024580;28;20053;-78
2023/04/25 10:31:06;;;;;;;1.77;1.00;;;13.40;99.90;;;;;;5027678;28;20041;-77
2023/04/25 10:33:39;;;;;;;1.48;1.20;;;13.40;99.90;;;;;;5022031;28;20119;-78
2023/04/25 10:36:18;;;;;;;4.53;1.85;;;13.40;99.90;;;;;;5036192;28;20049;-78
2023/04/25 10:38:47;;;;;;;4.10;1.20;;;13.40;99.90;;;;;;5019088;28;20053;-79
2023/04/25 10:41:14;;;;;;;6.20;1.77;;;13.50;99.90;;;;;;5022137;28;20792;-78
2023/04/25 10:43:45;;;;;;;1.60;1.10;;;13.60;99.90;;;;;;5022129;28;20137;-78
2023/04/25 10:46:31;;;;;;;1.40;1.30;;;13.80;99.90;;;;;;5023511;28;20056;-78
2023/04/25 10:49:02;;;;;;;2.00;1.30;;;13.90;99.90;;;;;;5028113;28;20057;-78
2023/04/25 10:51:32;;;;;;;1.35;0.80;;;13.90;99.90;;;;;;5024640;28;20485;-79
2023/04/25 10:54:19;;;;;;;2.90;0.93;;;14.00;99.90;;;;;;5025451;28;20057;-78
2023/04/25 10:56:48;;;;;;;4.72;1.20;;;14.10;99.90;;;;;;5018826;28;20091;-80
2023/04/25 10:59:18;;;;;;;1.70;0.82;;;14.10;99.90;;;;;;5049003;23;20049;-74
2023/04/25 11:01:52;;;;;;;0.60;0.60;;;14.20;99.90;;;;;;5031449;28;20487;-74
2023/04/25 11:04:25;;;;;;;1.73;0.85;;;14.30;99.90;;;;;;5034145;28;20060;-74
2023/04/25 11:06:55;;;;;;;2.00;0.70;;;14.40;99.90;;;;;;5040581;28;20080;-74
2023/04/25 11:09:45;;;;;;;3.05;1.30;;;14.40;99.90;;;;;;5025278;28;20133;-74
2023/04/25 11:12:12;;;;;;;2.80;1.48;;;14.40;99.90;;;;;;5028064;28;20120;-74
2023/04/25 11:14:39;;;;;;;2.42;1.05;;;14.50;99.90;;;;;;5027515;28;20128;-74
2023/04/25 11:17:11;;;;;;;1.40;1.10;;;14.40;99.90;;;;;;5028357;28;20045;-74
2023/04/25 11:19:38;;;;;;;3.28;1.83;;;14.40;99.90;;;;;;5023658;28;20045;-75
2023/04/25 11:22:05;;;;;;;3.05;1.45;;;14.40;99.90;;;;;;5029107;28;20464;-74
2023/04/25 11:24:34;;;;;;;2.60;1.25;;;14.30;99.90;;;;;;5024799;28;20053;-74
2023/04/25 11:27:05;;;;;;;5.43;2.03;;;14.10;99.90;;;;;;5025914;28;20139;-74
2023/04/25 11:29:34;;;;;;;4.95;1.55;;;13.70;99.90;;;;;;5024693;28;20873;-74
2023/04/25 11:32:01;;;;;;;5.78;1.50;;;13.50;99.90;;;;;;5028926;28;20041;-74
2023/04/25 11:34:32;;;;;;;2.67;1.00;;;13.50;99.90;;;;;;5023091;28;20050;-75
2023/04/25 11:37:01;;;;;;;2.13;1.10;;;13.50;99.90;;;;;;5024399;28;20055;-74
2023/04/25 11:39:29;;;;;;;1.70;1.20;;;13.20;99.90;;;;;;5026844;28;20053;-74
2023/04/25 11:41:56;;;;;;;10.57;2.05;;;12.80;99.90;;;;;;5022254;28;20045;-75
2023/04/25 11:44:23;;;;;;;2.97;1.40;;;12.60;99.90;;;;;;5025120;28;20083;-74
2023/04/25 11:46:50;;;;;;;16.02;5.00;;;12.00;99.90;;;;;;5024763;28;20060;-74
2023/04/25 11:49:18;;;;;;;4.72;2.40;;;11.40;99.90;;;;;;5028018;28;20068;-73
2023/04/25 11:51:46;;;;;;;3.58;1.92;;;10.70;99.90;;;;;;5027099;28;20417;-73
2023/04/25 11:54:14;;;;;;;4.40;1.80;;;10.60;99.90;;;;;;5041288;28;20038;-74
2023/04/25 11:56:42;;;;;;;3.75;1.80;;;10.70;99.90;;;;;;5025270;28;20056;-74
2023/04/25 11:59:09;;;;;;;2.35;1.10;;;10.70;99.90;;;;;;5023715;28;20129;-73
2023/04/25 12:01:39;;;;;;;4.75;1.35;;;10.90;99.90;;;;;;5038156;28;20455;-74
2023/04/25 12:04:21;;;;;;;2.42;1.30;;;11.10;99.90;;;;;;5028078;28;20144;-74
2023/04/25 12:07:00;;;;;;;4.40;1.73;;;11.10;99.90;;;;;;5024936;28;20054;-73
2023/04/25 12:09:31;;;;;;;2.30;1.50;;;11.20;99.90;;;;;;5025091;28;20096;-74
2023/04/25 12:12:02;;;;;;;4.68;1.77;;;11.20;99.90;;;;;;5029276;28;20149;-74
2023/04/25 12:14:31;;;;;;;3.92;2.22;;;11.20;99.90;;;;;;5024208;28;20050;-74
2023/04/25 12:17:00;;;;;;;2.35;1.45;;;11.30;99.90;;;;;;5022202;28;20072;-74
2023/04/25 12:19:33;;;;;;;2.55;1.42;;;11.30;99.90;;;;;;5020690;28;20494;-73
2023/04/25 12:22:18;;;;;;;2.45;1.60;;;11.40;99.90;;;;;;5024184;28;20103;-73
2023/04/25 12:24:45;;;;;;;2.20;1.50;;;11.40;99.90;;;;;;5022139;28;20132;-74
2023/04/25 12:27:18;;;;;;;2.22;1.33;;;11.30;99.90;;;;;;5026906;28;20073;-74
2023/04/25 12:29:54;;;;;;;4.32;1.48;;;11.20;99.90;;;;;;5024593;28;20054;-73
2023/04/25 12:32:21;;;;;;;1.65;1.30;;;11.20;99.90;;;;;;5028032;28;20405;-73
2023/04/25 12:34:48;;;;;;;3.92;1.42;;;11.20;99.90;;;;;;5025652;28;20583;-73
2023/04/25 12:37:15;;;;;;;2.30;1.27;;;11.30;99.90;;;;;;5023783;28;20416;-74
2023/04/25 12:39:42;;;;;;;1.30;1.10;;;11.50;99.90;;;;;;5028206;28;20053;-74
2023/04/25 12:42:11;;;;;;;4.20;1.50;;;11.50;99.90;;;;;;5028404;28;20081;-73
2023/04/25 12:44:39;;;;;;;6.57;1.33;;;11.70;99.90;;;;;;5025694;28;20509;-74
2023/04/25 12:47:05;;;;;;;2.67;1.73;;;11.60;99.90;;;;;;5025716;28;20084;-74
2023/04/25 12:49:32;;;;;;;2.72;1.10;;;11.70;99.90;;;;;;5022137;28;20057;-74
2023/04/25 12:51:59;;;;;;;2.05;1.33;;;11.70;99.90;;;;;;5023859;28;20088;-74
2023/04/25 12:54:26;;;;;;;4.45;1.63;;;11.70;99.90;;;;;;5040528;28;20548;-74